createdAt,value
2023-12-05T06:47:28.556Z,85.73
2023-12-05T06:52:31.646Z,86.92
2023-12-05T06:57:34.629Z,86.40
2023-12-05T07:02:38.907Z,85.85
2023-12-05T07:07:42.062Z,85.94
2023-12-05T07:12:45.419Z,86.63
2023-12-05T07:17:50.002Z,86.09
2023-12-05T07:22:53.077Z,85.81
2023-12-05T07:27:56.174Z,85.58
2023-12-05T07:33:00.669Z,85.34
2023-12-05T07:38:03.609Z,83.36
2023-12-05T07:43:06.733Z,82.77
2023-12-05T07:48:11.079Z,79.46
2023-12-05T07:53:13.981Z,75.82
2023-12-05T07:58:16.898Z,74.00
2023-12-05T08:03:21.309Z,70.51
2023-12-05T08:08:25.121Z,66.98
2023-12-05T08:13:28.121Z,63.89
2023-12-05T08:18:32.439Z,60.13
2023-12-05T08:23:35.374Z,59.89
2023-12-05T08:28:38.645Z,60.88
2023-12-05T08:33:42.976Z,64.32
2023-12-05T08:38:46.034Z,67.00
2023-12-05T08:43:49.220Z,68.88
2023-12-05T08:48:53.550Z,70.75
2023-12-05T08:53:56.587Z,72.00
2023-12-05T08:58:59.562Z,72.85
2023-12-05T09:04:04.030Z,71.99
2023-12-05T09:09:07.020Z,71.70
2023-12-05T09:14:09.959Z,71.34
2023-12-05T09:19:14.302Z,72.44
2023-12-05T09:24:18.038Z,72.68
2023-12-05T09:29:21.002Z,71.81
2023-12-05T09:34:25.230Z,71.71
2023-12-05T09:39:30.407Z,72.89
2023-12-05T09:44:34.530Z,74.51
2023-12-05T09:49:42.045Z,76.25
2023-12-05T09:54:45.695Z,75.54
2023-12-05T09:59:48.731Z,76.00
2023-12-05T10:05:00.677Z,76.28
2023-12-05T10:10:05.658Z,76.07
2023-12-05T10:15:09.809Z,74.44
2023-12-05T10:20:14.446Z,75.39
2023-12-05T10:25:18.013Z,75.12
2023-12-05T10:30:32.470Z,74.35
2023-12-05T10:35:36.907Z,74.12
2023-12-05T10:40:55.472Z,73.06
2023-12-05T10:45:59.187Z,72.75
2023-12-05T10:51:03.825Z,71.35
2023-12-05T10:56:13.648Z,72.12
2023-12-05T11:01:18.623Z,71.54
2023-12-05T11:06:23.969Z,71.36
2023-12-05T11:11:28.563Z,69.71
2023-12-05T11:16:38.153Z,69.03
2023-12-05T11:21:55.685Z,68.72
2023-12-05T11:27:16.333Z,66.96
2023-12-05T11:32:26.583Z,67.45
2023-12-05T11:37:54.287Z,66.85
2023-12-05T11:43:06.791Z,65.99
2023-12-05T11:48:12.897Z,66.10
2023-12-05T11:53:20.528Z,63.48
2023-12-05T11:58:31.550Z,64.48
2023-12-05T12:03:50.006Z,63.06
2023-12-05T12:08:57.653Z,61.01
2023-12-05T12:14:13.428Z,59.29
2023-12-05T12:19:17.828Z,58.71
2023-12-05T12:24:24.191Z,58.61
2023-12-05T12:29:28.825Z,58.46
2023-12-05T12:34:32.128Z,58.39
2023-12-05T12:39:37.797Z,59.78
2023-12-05T12:44:41.027Z,59.26
2023-12-05T12:49:44.711Z,59.38
2023-12-05T12:54:51.388Z,61.00
2023-12-05T13:00:29.780Z,61.63
2023-12-05T13:05:20.793Z,62.35
2023-12-05T13:10:25.416Z,61.95
2023-12-05T13:15:29.986Z,62.79
2023-12-05T13:20:36.263Z,62.49
2023-12-05T13:25:45.884Z,63.16
2023-12-05T13:30:49.478Z,63.42
2023-12-05T13:35:53.516Z,63.50
2023-12-05T13:40:57.970Z,63.73
2023-12-05T13:46:00.953Z,64.29
2023-12-05T13:51:05.189Z,64.43
2023-12-05T13:56:11.716Z,65.80
2023-12-05T14:01:14.746Z,65.74
2023-12-05T14:06:17.961Z,65.26
2023-12-05T14:11:22.357Z,65.76
2023-12-05T14:16:26.508Z,66.04
2023-12-05T14:21:31.256Z,66.75
2023-12-05T14:26:35.612Z,66.50
2023-12-05T14:31:38.577Z,66.60
2023-12-05T14:36:41.571Z,67.49
2023-12-05T14:41:46.851Z,67.37
2023-12-05T14:46:49.809Z,67.86
2023-12-05T14:51:52.772Z,67.97
2023-12-05T14:56:57.074Z,67.83
2023-12-05T15:02:00.072Z,69.15
2023-12-05T15:07:03.399Z,70.49
2023-12-05T15:12:10.233Z,71.02
2023-12-05T15:17:13.164Z,71.29
2023-12-05T15:22:16.432Z,71.60
2023-12-05T15:27:21.289Z,72.36
2023-12-05T15:32:28.050Z,72.56
2023-12-05T15:37:32.132Z,73.33
2023-12-05T15:42:36.761Z,73.89
2023-12-05T15:47:40.285Z,74.81
2023-12-05T15:52:43.238Z,75.01
2023-12-05T15:57:47.618Z,75.84
2023-12-05T16:02:50.656Z,75.73
2023-12-05T16:07:53.563Z,75.21
2023-12-05T16:12:57.861Z,75.84
2023-12-05T16:18:01.115Z,75.38
2023-12-05T16:23:04.054Z,75.73
2023-12-05T16:28:08.509Z,76.25
2023-12-05T16:33:11.535Z,76.65
2023-12-05T16:38:14.542Z,76.21
2023-12-05T16:43:18.892Z,76.07
2023-12-05T16:48:22.085Z,75.90
2023-12-05T16:53:25.026Z,76.60
2023-12-05T16:58:29.390Z,76.06
2023-12-05T17:03:32.474Z,76.83
2023-12-05T17:08:36.909Z,76.60
2023-12-05T17:13:41.179Z,76.43
2023-12-05T17:18:44.328Z,77.10
2023-12-05T17:23:47.258Z,77.27
2023-12-05T17:28:52.797Z,78.42
2023-12-05T17:33:55.867Z,78.09
2023-12-05T17:38:58.835Z,78.69
2023-12-05T17:44:03.156Z,79.90
2023-12-05T17:49:07.012Z,80.59
2023-12-05T17:54:10.224Z,80.48
2023-12-05T17:59:14.642Z,80.51
2023-12-05T18:04:17.740Z,80.88
2023-12-05T18:09:20.852Z,81.87
2023-12-05T18:14:27.600Z,81.66
2023-12-05T18:19:30.604Z,81.70
2023-12-05T18:24:33.637Z,81.54
2023-12-05T18:29:41.033Z,82.17
2023-12-05T18:34:44.636Z,82.43
2023-12-05T18:39:47.767Z,82.11
2023-12-05T18:44:52.617Z,82.00
2023-12-05T18:49:56.779Z,81.99
2023-12-05T18:55:01.722Z,82.33
2023-12-05T19:00:10.802Z,83.20
2023-12-05T19:05:15.558Z,82.90
2023-12-05T19:10:20.130Z,81.57
2023-12-05T19:15:25.422Z,81.62
2023-12-05T19:20:32.453Z,81.69
2023-12-05T19:25:37.994Z,81.78
2023-12-05T19:30:48.190Z,82.20
2023-12-05T19:35:53.758Z,81.39
2023-12-05T19:40:59.836Z,81.68
2023-12-05T19:46:07.062Z,81.18
2023-12-05T19:51:12.455Z,81.27
2023-12-05T19:56:17.737Z,81.38
2023-12-05T20:01:25.241Z,81.14
2023-12-05T20:06:30.949Z,81.13
2023-12-05T20:11:37.385Z,82.71
2023-12-05T20:16:44.337Z,84.64
2023-12-05T20:21:50.033Z,86.99
2023-12-05T20:26:55.258Z,89.32
2023-12-05T20:32:02.160Z,91.07
2023-12-05T20:37:08.267Z,92.05
2023-12-05T20:42:13.611Z,94.35
2023-12-05T20:47:19.502Z,95.72
2023-12-05T20:52:24.332Z,96.94
2023-12-05T20:57:28.275Z,98.04
2023-12-05T21:02:32.665Z,99.65
2023-12-05T21:07:35.895Z,100.00
2023-12-05T21:12:39.033Z,100.00
2023-12-05T21:17:43.437Z,100.00
2023-12-05T21:22:46.414Z,100.00
2023-12-05T21:27:50.100Z,100.00
2023-12-05T21:32:54.784Z,100.00
2023-12-05T21:37:57.715Z,100.00
2023-12-05T21:43:00.635Z,100.00
2023-12-05T21:48:05.272Z,100.00
2023-12-05T21:53:08.220Z,100.00
2023-12-05T21:58:11.182Z,100.00
2023-12-05T22:03:15.645Z,100.00
2023-12-05T22:08:18.589Z,100.00
2023-12-05T22:13:21.781Z,100.00
2023-12-05T22:18:26.163Z,100.00
2023-12-05T22:23:33.581Z,100.00
2023-12-05T22:28:38.393Z,100.00
2023-12-05T22:33:43.016Z,100.00
2023-12-05T22:38:46.086Z,100.00
2023-12-05T22:43:50.385Z,100.00
2023-12-05T22:48:55.113Z,100.00
2023-12-05T22:53:59.262Z,100.00
2023-12-05T22:59:02.184Z,100.00
2023-12-05T23:04:06.658Z,100.00
2023-12-05T23:09:09.576Z,100.00
2023-12-05T23:14:12.775Z,100.00
2023-12-05T23:19:17.448Z,100.00
2023-12-05T23:24:20.527Z,100.00
2023-12-05T23:29:24.073Z,100.00
2023-12-05T23:34:29.285Z,100.00
2023-12-05T23:39:33.014Z,100.00
2023-12-05T23:44:36.257Z,100.00
2023-12-05T23:49:40.599Z,100.00
2023-12-05T23:54:43.511Z,100.00
2023-12-05T23:59:46.404Z,100.00
